Terminal Aerodrome Forecast
Issued by NWS

Home | Current Version | Previous Version | Graphics & Text | Print | Product List | Glossary On
Versions: 1 2 3 4 5 6 7 8 9 10 11 12 13 14 15 16 17 18 19 20
278
FTUS43 KICT 291140
TAFRSL
TAF
KRSL 291140Z 2912/3012 03018G27KT 6SM -SHRA BR OVC004
      TEMPO 2912/2916 2SM +SHRA BR SCT004 OVC007
     FM291800 01023G31KT 5SM -SHRA BR OVC007
     FM300300 36017G25KT 5SM BR VCSH OVC006=

USA.gov is the U.S. government's official web portal to all federal, state and local government web resources and services.